Terminal Aerodrome Forecast
Issued by NWS

Home | Current Version | Previous Version | Text Only | Print | Product List | Glossary On
Versions: 1 2 3 4 5 6 7 8 9 10 11 12 13 14 15
000
FTUS45 KTFX 050520
TAFGTF
TAF
KGTF 050520Z 0506/0606 VRB05KT P6SM FEW110
     FM051700 22011KT P6SM SCT060 BKN090 PROB30 0520/0524 VRB15G30KT
      TSRA BKN060CB
     FM060200 20008KT P6SM VCSH SCT050 OVC100=

USA.gov is the U.S. government's official web portal to all federal, state and local government web resources and services.